Weather at Columbia County Airport

Public forecast

Using degrees Fahrenheit for public forecast. Weather courtesy of forecast.io.

Closest aviation weather report (METAR) to Columbia County Airport

Closest report is Pittsfield Municipal Airport, 20.2 nm (37.5 km) ENE. Retrieved 2020/09/29 22:14 UTC (18 minutes ago):

KPSF 292214Z AUTO 29005KT 10SM -RA FEW004 BKN008 OVC022 20/19 A2982 RMK AO2 P0005 T02000189

Closest aviation forecast (TAF) to Columbia County Airport

Closest forecast is Pittsfield Municipal Airport, 20.2 nm (37.5 km) ENE. Retrieved 2020/09/29 18:39 UTC (4 hours ago):

TAF KPSF 291738Z 2918/3018 18009KT 6SM -SHRA BR BKN015 OVC020 FM300000 15007KT 5SM -SHRA BR BKN010 FM300400 16010KT 4SM -RA BR BKN008 OVC012 FM300800 22010G18KT 3SM RA BR BKN008 OVC010 PROB30 3008/3012 1SM +RA BR OVC005 FM301400 27010G20KT P6SM VCSH SCT022 BKN035